Time;durP1;ratioP1;P1;durP2;ratioP2;P2;SDS_P1;SDS_P2;PMS_P1;PMS_P2;Temp;Humidity;BMP_temperature;BMP_pressure;BME280_temperature;BME280_humidity;BME280_pressure;Samples;Min_cycle;Max_cycle;Signal;HPM_P1;HPM_P2
2021/07/30 00:00:09;;;;;;;8.50;2.03;;;15.50;99.90;;;;;;4987985;28;20200;-95
2021/07/30 00:02:36;;;;;;;6.75;2.00;;;15.60;99.90;;;;;;4988258;28;20223;-95
2021/07/30 00:05:21;;;;;;;6.82;2.10;;;15.60;99.90;;;;;;4987718;28;20652;-96
2021/07/30 00:07:50;;;;;;;11.43;2.22;;;15.60;99.90;;;;;;4988091;28;20180;-95
2021/07/30 00:10:19;;;;;;;5.00;2.13;;;15.60;99.90;;;;;;4987504;28;20199;-94
2021/07/30 00:12:55;;;;;;;6.65;2.25;;;15.60;99.90;;;;;;4987213;28;20203;-93
2021/07/30 00:15:26;;;;;;;7.70;2.25;;;15.60;99.90;;;;;;4987484;28;20175;-95
2021/07/30 00:18:02;;;;;;;7.45;2.10;;;15.60;99.90;;;;;;4986983;28;20739;-93
2021/07/30 00:20:33;;;;;;;5.22;1.85;;;15.60;99.90;;;;;;4986034;28;20203;-94
2021/07/30 00:23:01;;;;;;;4.95;2.15;;;15.60;99.90;;;;;;4987248;28;20195;-94
2021/07/30 00:25:31;;;;;;;6.78;1.83;;;15.60;99.90;;;;;;4986849;28;20168;-95
2021/07/30 00:28:25;;;;;;;10.25;2.25;;;15.60;99.90;;;;;;4986174;28;20165;-94
2021/07/30 00:30:52;;;;;;;7.30;2.25;;;15.60;99.90;;;;;;5005826;28;20230;-95
2021/07/30 00:33:18;;;;;;;8.48;1.92;;;15.50;99.90;;;;;;5004257;28;20243;-95
2021/07/30 00:35:44;;;;;;;6.13;2.33;;;15.50;99.90;;;;;;5003992;28;20168;-95
2021/07/30 00:38:12;;;;;;;6.93;2.38;;;15.40;99.90;;;;;;5005692;28;20167;-95
2021/07/30 00:40:38;;;;;;;5.15;2.00;;;15.40;99.90;;;;;;5006597;28;20206;-95
2021/07/30 00:43:06;;;;;;;5.40;1.95;;;15.30;99.90;;;;;;5005877;28;20222;-95
2021/07/30 00:45:33;;;;;;;7.47;2.00;;;15.30;99.90;;;;;;5005887;28;20164;-94
2021/07/30 00:47:59;;;;;;;7.03;2.33;;;15.30;99.90;;;;;;5006018;28;20163;-95
2021/07/30 00:50:25;;;;;;;6.75;2.38;;;15.20;99.90;;;;;;5005036;28;20262;-95
2021/07/30 00:52:52;;;;;;;8.65;2.13;;;15.20;99.90;;;;;;5004753;28;20237;-95
2021/07/30 00:55:22;;;;;;;12.02;2.38;;;15.20;99.90;;;;;;5004910;28;20179;-94
2021/07/30 00:57:52;;;;;;;5.53;1.90;;;15.10;99.90;;;;;;5005189;28;20180;-95
2021/07/30 01:00:25;;;;;;;3.92;2.33;;;15.10;99.90;;;;;;5004889;28;20195;-94
2021/07/30 01:03:00;;;;;;;7.75;2.40;;;15.10;99.90;;;;;;5005234;28;20270;-94
2021/07/30 01:05:37;;;;;;;6.60;2.00;;;15.10;99.90;;;;;;5005621;28;20167;-95
2021/07/30 01:08:05;;;;;;;5.18;2.33;;;15.10;99.90;;;;;;5005312;28;20163;-94
2021/07/30 01:10:32;;;;;;;6.40;2.30;;;15.10;99.90;;;;;;5004934;28;20174;-96
2021/07/30 01:13:01;;;;;;;7.35;2.40;;;15.10;99.90;;;;;;5005833;28;20199;-94
2021/07/30 01:15:27;;;;;;;5.43;2.00;;;15.10;99.90;;;;;;5004406;28;20228;-96
2021/07/30 01:17:53;;;;;;;5.75;2.20;;;15.10;99.90;;;;;;5004409;28;20167;-95
2021/07/30 01:20:29;;;;;;;9.05;1.92;;;15.10;99.90;;;;;;5005054;28;20195;-94
2021/07/30 01:22:58;;;;;;;5.93;1.83;;;15.00;99.90;;;;;;5003539;28;20252;-94
2021/07/30 01:25:27;;;;;;;5.88;1.98;;;15.00;99.90;;;;;;5002999;28;20674;-94
2021/07/30 01:27:54;;;;;;;5.63;2.05;;;15.00;99.90;;;;;;5003045;28;20516;-95
2021/07/30 01:30:22;;;;;;;5.38;2.05;;;15.00;99.90;;;;;;5003539;28;20282;-94
2021/07/30 01:32:49;;;;;;;7.03;2.42;;;15.00;99.90;;;;;;5004811;28;20237;-95
2021/07/30 01:35:16;;;;;;;7.95;2.30;;;15.00;99.90;;;;;;5004191;28;20180;-96
2021/07/30 01:37:43;;;;;;;7.68;2.50;;;15.00;99.90;;;;;;5003824;28;20217;-94
2021/07/30 01:40:14;;;;;;;5.03;2.22;;;15.00;99.90;;;;;;5004860;28;20195;-94
2021/07/30 01:42:43;;;;;;;6.05;1.95;;;15.00;99.90;;;;;;5002740;28;20238;-93
2021/07/30 01:45:10;;;;;;;6.88;2.13;;;15.00;99.90;;;;;;5003498;28;20254;-95
2021/07/30 01:47:43;;;;;;;6.43;2.08;;;15.10;99.90;;;;;;5003441;28;20175;-94
2021/07/30 01:50:22;;;;;;;7.00;2.28;;;15.10;99.90;;;;;;5003353;28;20175;-95
2021/07/30 01:52:47;;;;;;;9.68;2.55;;;15.10;99.90;;;;;;5003809;28;20195;-94
2021/07/30 01:55:15;;;;;;;7.45;2.38;;;15.10;99.90;;;;;;5003766;28;20322;-95
2021/07/30 01:57:41;;;;;;;6.82;2.58;;;15.10;99.90;;;;;;5004028;28;20233;-95
2021/07/30 02:00:08;;;;;;;8.10;2.05;;;15.10;99.90;;;;;;5003862;28;20290;-95
2021/07/30 02:02:36;;;;;;;4.75;2.50;;;15.10;99.90;;;;;;5003854;28;20287;-95
2021/07/30 02:05:02;;;;;;;6.68;2.03;;;15.10;99.90;;;;;;5004736;28;20202;-95
2021/07/30 02:07:34;;;;;;;5.85;2.40;;;15.20;99.90;;;;;;5005873;28;20171;-94
2021/07/30 02:10:00;;;;;;;5.63;2.42;;;15.20;99.90;;;;;;5005803;28;20175;-95
2021/07/30 02:12:26;;;;;;;5.57;2.10;;;15.20;99.90;;;;;;5005379;28;20210;-93
2021/07/30 02:15:06;;;;;;;5.75;2.08;;;15.20;99.90;;;;;;5005015;28;20258;-93
2021/07/30 02:17:33;;;;;;;8.02;2.42;;;15.20;99.90;;;;;;5004768;28;20178;-95
2021/07/30 02:20:03;;;;;;;6.10;2.35;;;15.20;99.90;;;;;;5005829;28;20203;-95
2021/07/30 02:22:42;;;;;;;8.10;2.20;;;15.30;99.90;;;;;;5004650;28;20249;-96
2021/07/30 02:25:09;;;;;;;6.68;2.40;;;15.30;99.90;;;;;;5009185;28;20167;-95
2021/07/30 02:27:38;;;;;;;6.63;2.50;;;15.30;99.90;;;;;;5008141;28;20178;-95
2021/07/30 02:30:06;;;;;;;6.28;2.55;;;15.30;99.90;;;;;;5009089;28;20330;-95
2021/07/30 02:32:47;;;;;;;8.95;2.35;;;15.30;99.90;;;;;;5008871;28;20234;-95
2021/07/30 02:35:18;;;;;;;5.65;2.25;;;15.20;99.90;;;;;;5008957;28;20199;-95
2021/07/30 02:37:44;;;;;;;7.55;2.47;;;15.20;99.90;;;;;;5360066;23;20294;-95
2021/07/30 02:40:13;;;;;;;6.80;2.38;;;15.30;99.90;;;;;;4989888;28;20274;-95
2021/07/30 02:42:45;;;;;;;4.70;2.30;;;15.20;99.90;;;;;;4989739;28;20210;-95
2021/07/30 02:45:11;;;;;;;4.68;2.05;;;15.20;99.90;;;;;;4991614;28;20168;-95
2021/07/30 02:47:38;;;;;;;6.07;2.30;;;15.30;99.90;;;;;;4990667;28;20183;-96
2021/07/30 02:50:06;;;;;;;5.32;2.20;;;15.20;99.90;;;;;;4990141;28;20168;-95
2021/07/30 02:52:33;;;;;;;7.32;2.60;;;15.10;99.90;;;;;;4988853;28;20750;-95
2021/07/30 02:54:58;;;;;;;5.00;2.63;;;15.10;99.90;;;;;;4989930;28;20196;-94
2021/07/30 02:57:24;;;;;;;5.40;2.17;;;15.10;99.90;;;;;;4990271;28;20188;-96
2021/07/30 02:59:52;;;;;;;7.10;2.30;;;15.00;99.90;;;;;;4990552;28;20283;-96
2021/07/30 03:02:19;;;;;;;10.00;2.38;;;15.00;99.90;;;;;;4991386;28;20188;-96
2021/07/30 03:04:45;;;;;;;5.95;2.25;;;15.00;99.90;;;;;;4991721;28;20191;-96
2021/07/30 03:07:11;;;;;;;10.05;2.63;;;14.90;99.90;;;;;;4990684;28;20250;-95
2021/07/30 03:09:37;;;;;;;10.65;2.50;;;14.90;99.90;;;;;;4991246;28;20172;-96
2021/07/30 03:12:03;;;;;;;6.38;2.58;;;14.80;99.90;;;;;;4990696;28;20255;-95
2021/07/30 03:14:29;;;;;;;6.57;2.55;;;14.70;99.90;;;;;;4990194;28;20200;-96
2021/07/30 03:16:56;;;;;;;6.47;2.30;;;14.70;99.90;;;;;;4991104;28;20199;-96
2021/07/30 03:19:22;;;;;;;8.15;2.63;;;14.70;99.90;;;;;;4991009;28;20203;-96
2021/07/30 03:21:48;;;;;;;8.30;2.63;;;14.60;99.90;;;;;;4990492;28;20254;-96
2021/07/30 03:24:15;;;;;;;5.00;2.45;;;14.60;99.90;;;;;;4991016;28;20206;-95
2021/07/30 03:26:41;;;;;;;8.25;2.35;;;14.60;99.90;;;;;;4991578;28;20199;-95
2021/07/30 03:29:09;;;;;;;6.90;2.53;;;14.50;99.90;;;;;;4991779;28;20172;-96
2021/07/30 03:31:35;;;;;;;6.90;2.33;;;14.50;99.90;;;;;;4990868;28;20270;-96
2021/07/30 03:34:03;;;;;;;5.13;2.55;;;14.50;99.90;;;;;;4991795;28;20211;-96
2021/07/30 03:36:29;;;;;;;7.15;2.55;;;14.40;99.90;;;;;;4991318;28;20176;-96
2021/07/30 03:38:55;;;;;;;7.95;2.92;;;14.40;99.90;;;;;;4988698;28;20243;-96
2021/07/30 03:41:22;;;;;;;9.07;2.60;;;14.40;99.90;;;;;;4992083;28;20168;-96
2021/07/30 03:43:49;;;;;;;8.05;2.63;;;14.40;99.90;;;;;;4991557;28;20200;-96
2021/07/30 03:46:20;;;;;;;8.75;2.63;;;14.40;99.90;;;;;;5009098;28;20215;-95
2021/07/30 03:48:46;;;;;;;4.80;2.47;;;14.40;99.90;;;;;;4991394;28;20168;-96
2021/07/30 03:51:13;;;;;;;6.05;2.70;;;14.50;99.90;;;;;;4990857;28;20612;-96
2021/07/30 03:53:43;;;;;;;6.90;2.53;;;14.50;99.90;;;;;;4991830;28;20195;-96
2021/07/30 03:56:16;;;;;;;6.05;2.42;;;14.50;99.90;;;;;;4990444;28;20176;-96
2021/07/30 03:58:44;;;;;;;5.93;2.42;;;14.50;99.90;;;;;;4990418;28;20175;-96
2021/07/30 04:01:14;;;;;;;6.45;2.80;;;14.50;99.90;;;;;;4991228;28;20172;-95
2021/07/30 04:03:45;;;;;;;7.75;2.83;;;14.50;99.90;;;;;;4990502;28;20215;-96
2021/07/30 04:06:12;;;;;;;5.68;2.83;;;14.50;99.90;;;;;;4990417;28;20239;-96
2021/07/30 04:08:40;;;;;;;4.15;2.40;;;14.50;99.90;;;;;;4990221;28;20171;-95
2021/07/30 04:11:06;;;;;;;7.20;2.58;;;14.50;99.90;;;;;;4990854;28;20174;-96
2021/07/30 04:13:33;;;;;;;5.95;2.40;;;14.40;99.90;;;;;;4991575;28;20207;-95
2021/07/30 04:16:09;;;;;;;5.68;2.22;;;14.50;99.90;;;;;;4991504;28;20172;-95
2021/07/30 04:18:35;;;;;;;7.97;2.80;;;14.50;99.90;;;;;;4990915;28;20178;-96
2021/07/30 04:21:05;;;;;;;7.05;2.70;;;14.50;99.90;;;;;;4990186;28;20168;-96
2021/07/30 04:23:34;;;;;;;9.75;3.28;;;14.50;99.90;;;;;;4990305;28;20196;-96
2021/07/30 04:26:00;;;;;;;5.47;2.63;;;14.50;99.90;;;;;;4990259;28;20168;-96
2021/07/30 04:28:26;;;;;;;9.32;2.47;;;14.50;99.90;;;;;;4989080;28;20180;-96
2021/07/30 04:30:52;;;;;;;10.43;3.05;;;14.50;99.90;;;;;;4990050;28;20178;-96
2021/07/30 04:33:18;;;;;;;5.15;2.65;;;14.50;99.90;;;;;;4989425;28;20199;-96
2021/07/30 04:35:44;;;;;;;6.95;2.47;;;14.50;99.90;;;;;;4988579;28;20184;-96
2021/07/30 04:38:10;;;;;;;7.75;2.83;;;14.50;99.90;;;;;;4983923;28;20227;-96
2021/07/30 04:40:40;;;;;;;9.02;2.63;;;14.50;99.90;;;;;;4969789;28;20215;-96
2021/07/30 04:43:06;;;;;;;8.45;2.80;;;14.50;99.90;;;;;;4969872;28;20200;-96
2021/07/30 04:45:35;;;;;;;6.45;2.60;;;14.50;99.90;;;;;;4969651;28;20268;-96
2021/07/30 04:48:01;;;;;;;6.72;3.00;;;14.60;99.90;;;;;;4969282;28;20200;-96
2021/07/30 04:50:27;;;;;;;7.20;2.85;;;14.60;99.90;;;;;;4969006;28;20180;-95
2021/07/30 04:52:54;;;;;;;6.78;2.90;;;14.60;99.90;;;;;;4969095;28;20211;-96
2021/07/30 04:55:21;;;;;;;9.57;3.03;;;14.70;99.90;;;;;;4969153;28;20176;-96
2021/07/30 04:57:48;;;;;;;4.15;2.47;;;14.70;99.90;;;;;;4969463;28;20632;-95
2021/07/30 05:00:21;;;;;;;5.82;2.78;;;14.90;99.90;;;;;;4970377;28;20205;-95
2021/07/30 05:02:52;;;;;;;10.45;2.60;;;14.90;99.90;;;;;;4970108;28;20193;-95
2021/07/30 05:05:19;;;;;;;8.50;3.00;;;15.00;99.90;;;;;;4970142;28;20691;-96
2021/07/30 05:07:46;;;;;;;5.10;2.40;;;15.10;99.90;;;;;;4971173;28;20168;-96
2021/07/30 05:10:21;;;;;;;11.15;2.85;;;15.10;99.90;;;;;;4972006;28;20173;-95
2021/07/30 05:12:48;;;;;;;6.65;2.58;;;15.20;99.90;;;;;;4970974;28;20223;-95
2021/07/30 05:15:14;;;;;;;5.50;2.50;;;15.30;99.90;;;;;;4971171;28;20196;-96
2021/07/30 05:17:41;;;;;;;5.05;2.40;;;15.30;99.90;;;;;;4972337;28;20180;-96
2021/07/30 05:20:11;;;;;;;6.68;3.03;;;15.40;99.90;;;;;;4972904;28;20210;-96
2021/07/30 05:22:41;;;;;;;9.68;3.05;;;15.40;99.90;;;;;;4988469;28;20200;-96
2021/07/30 05:25:11;;;;;;;8.25;3.00;;;15.50;99.90;;;;;;4971340;28;20176;-96
2021/07/30 05:27:37;;;;;;;8.32;2.42;;;15.50;99.90;;;;;;4971366;28;20180;-96
2021/07/30 05:30:12;;;;;;;8.00;2.70;;;15.60;99.90;;;;;;4971224;28;20188;-95
2021/07/30 05:32:39;;;;;;;9.20;2.97;;;15.70;99.90;;;;;;4971064;28;20204;-96
2021/07/30 05:35:08;;;;;;;6.25;2.83;;;15.70;99.90;;;;;;4970207;28;20184;-95
2021/07/30 05:37:34;;;;;;;6.63;2.60;;;15.80;99.90;;;;;;4969294;28;20661;-96
2021/07/30 05:40:00;;;;;;;5.82;2.75;;;15.80;99.90;;;;;;4989305;28;20210;-96
2021/07/30 05:42:26;;;;;;;6.60;2.70;;;15.90;99.90;;;;;;4987482;28;20227;-96
2021/07/30 05:44:58;;;;;;;10.20;2.80;;;16.00;99.90;;;;;;4990240;28;20164;-96
2021/07/30 05:47:24;;;;;;;5.72;2.42;;;16.00;99.90;;;;;;4988095;28;20175;-95
2021/07/30 05:49:52;;;;;;;7.00;2.90;;;16.10;99.90;;;;;;4988070;28;20172;-95
2021/07/30 05:52:20;;;;;;;8.48;2.67;;;16.10;99.90;;;;;;4988251;28;20179;-96
2021/07/30 05:54:45;;;;;;;5.88;2.30;;;16.20;99.90;;;;;;4986880;28;20171;-95
2021/07/30 05:57:11;;;;;;;4.93;2.53;;;16.20;99.90;;;;;;4985866;28;20168;-95
2021/07/30 05:59:38;;;;;;;7.93;2.50;;;16.30;99.90;;;;;;4989392;28;20263;-96
2021/07/30 06:02:05;;;;;;;6.90;2.88;;;16.30;99.90;;;;;;4990038;28;20168;-96
2021/07/30 06:04:34;;;;;;;6.57;2.92;;;16.40;99.90;;;;;;5006546;28;20172;-96
2021/07/30 06:07:03;;;;;;;7.05;2.88;;;16.40;99.90;;;;;;4987147;28;20176;-96
2021/07/30 06:09:29;;;;;;;11.75;3.42;;;16.50;99.90;;;;;;4988723;28;20180;-95
2021/07/30 06:11:57;;;;;;;10.50;2.70;;;16.50;99.90;;;;;;4987035;28;20176;-96
2021/07/30 06:14:23;;;;;;;7.63;2.85;;;16.60;99.90;;;;;;4986392;28;20206;-94
2021/07/30 06:16:49;;;;;;;8.05;2.58;;;16.60;99.90;;;;;;4989074;28;20200;-95
2021/07/30 06:19:15;;;;;;;8.27;2.63;;;16.70;99.90;;;;;;4986848;28;20210;-96
2021/07/30 06:21:42;;;;;;;7.22;2.38;;;16.70;99.90;;;;;;4985659;28;20164;-96
2021/07/30 06:24:09;;;;;;;9.00;3.10;;;16.70;99.90;;;;;;4985433;28;20207;-96
2021/07/30 06:26:36;;;;;;;9.52;2.90;;;16.80;99.90;;;;;;4988053;28;20179;-95
2021/07/30 06:29:02;;;;;;;7.70;2.75;;;16.90;99.90;;;;;;4986757;28;20645;-96
2021/07/30 06:31:30;;;;;;;8.63;3.10;;;16.90;99.90;;;;;;4985067;28;20203;-95
2021/07/30 06:33:58;;;;;;;4.68;2.28;;;17.00;99.90;;;;;;4984528;28;20203;-96
2021/07/30 06:36:25;;;;;;;8.13;2.90;;;17.00;99.90;;;;;;4988376;28;20172;-96
2021/07/30 06:38:51;;;;;;;9.48;3.08;;;17.10;99.90;;;;;;4987003;28;20240;-96
2021/07/30 06:41:21;;;;;;;7.80;2.92;;;17.20;99.90;;;;;;4987489;28;20191;-96
2021/07/30 06:43:47;;;;;;;7.68;2.85;;;17.20;99.90;;;;;;4987737;28;20624;-96
2021/07/30 06:46:13;;;;;;;12.57;3.40;;;17.30;99.90;;;;;;4987558;28;20168;-94
2021/07/30 06:48:39;;;;;;;7.85;2.63;;;17.40;99.90;;;;;;4986003;28;20176;-95
2021/07/30 06:51:05;;;;;;;8.40;2.50;;;17.50;99.90;;;;;;4988414;28;20176;-96
2021/07/30 06:53:31;;;;;;;7.63;2.72;;;17.60;99.90;;;;;;4987852;28;20196;-95
2021/07/30 06:56:11;;;;;;;6.80;2.80;;;17.70;99.90;;;;;;4986390;28;20172;-96
2021/07/30 06:58:37;;;;;;;19.05;3.75;;;17.80;99.90;;;;;;4984319;28;20176;-96
2021/07/30 07:01:05;;;;;;;17.00;2.90;;;18.00;99.90;;;;;;4985243;28;20183;-95
2021/07/30 07:03:33;;;;;;;10.88;2.88;;;18.10;99.90;;;;;;4985174;28;20267;-94
2021/07/30 07:05:59;;;;;;;11.95;3.42;;;18.20;99.90;;;;;;4984921;28;20169;-96
2021/07/30 07:08:32;;;;;;;6.78;2.53;;;18.30;99.90;;;;;;4983323;28;20303;-96
2021/07/30 07:11:02;;;;;;;9.35;2.95;;;18.50;99.90;;;;;;4988566;28;20172;-95
2021/07/30 07:13:31;;;;;;;9.27;2.58;;;18.60;99.90;;;;;;4989289;28;20671;-95
2021/07/30 07:15:57;;;;;;;7.38;2.72;;;18.70;99.90;;;;;;4990708;28;20561;-95
2021/07/30 07:18:23;;;;;;;6.80;2.35;;;18.80;99.90;;;;;;4990416;28;20204;-96
2021/07/30 07:21:00;;;;;;;5.80;2.80;;;19.00;99.90;;;;;;4989731;28;20280;-96
2021/07/30 07:23:29;;;;;;;7.30;2.92;;;19.00;99.90;;;;;;4989913;28;20231;-95
2021/07/30 07:26:02;;;;;;;9.90;2.95;;;19.10;99.90;;;;;;4993874;28;20171;-96
2021/07/30 07:28:28;;;;;;;7.70;2.35;;;19.20;99.90;;;;;;4990918;28;20188;-95
2021/07/30 07:30:56;;;;;;;6.05;2.60;;;19.20;99.90;;;;;;4992328;28;20179;-95
2021/07/30 07:33:23;;;;;;;8.77;2.40;;;19.20;99.90;;;;;;4991501;28;20280;-96
2021/07/30 07:35:49;;;;;;;12.52;3.00;;;19.30;99.90;;;;;;4992101;28;20236;-96
2021/07/30 07:38:16;;;;;;;9.82;2.95;;;19.40;99.90;;;;;;4988127;28;20244;-96
2021/07/30 07:40:45;;;;;;;5.80;2.25;;;19.40;99.90;;;;;;4986434;28;20243;-95
2021/07/30 07:43:13;;;;;;;7.45;2.45;;;19.50;99.90;;;;;;4986125;28;20200;-96
2021/07/30 07:45:50;;;;;;;7.05;2.67;;;19.60;99.90;;;;;;4989709;28;20164;-96
2021/07/30 07:48:16;;;;;;;10.50;2.70;;;19.70;99.60;;;;;;4989926;28;20168;-95
2021/07/30 07:50:42;;;;;;;12.63;2.78;;;19.80;99.00;;;;;;4989908;28;20182;-96
2021/07/30 07:53:17;;;;;;;8.55;2.50;;;19.90;99.90;;;;;;4990208;28;20559;-95
2021/07/30 07:55:43;;;;;;;4.75;2.15;;;19.90;98.70;;;;;;4990020;28;20227;-96
2021/07/30 07:58:09;;;;;;;5.10;2.83;;;20.00;98.90;;;;;;4989657;28;20258;-96
2021/07/30 08:00:37;;;;;;;5.00;1.98;;;20.20;98.60;;;;;;4991127;28;20200;-96
2021/07/30 08:03:05;;;;;;;6.53;2.80;;;20.10;98.10;;;;;;4990638;28;20196;-96
2021/07/30 08:05:39;;;;;;;8.30;2.63;;;20.30;99.10;;;;;;4991102;28;20163;-96
2021/07/30 08:08:08;;;;;;;9.25;2.40;;;20.30;97.60;;;;;;4992015;28;20195;-96
2021/07/30 08:10:36;;;;;;;9.80;2.20;;;20.40;98.00;;;;;;4993717;28;20207;-96
2021/07/30 08:13:03;;;;;;;6.03;2.22;;;20.40;97.80;;;;;;4993950;28;20200;-95
2021/07/30 08:15:29;;;;;;;10.00;2.75;;;20.40;97.20;;;;;;4993017;28;20176;-94
2021/07/30 08:17:56;;;;;;;8.13;2.60;;;20.30;97.60;;;;;;4991619;28;20183;-96
2021/07/30 08:20:24;;;;;;;5.50;2.30;;;20.30;98.30;;;;;;4990796;28;20199;-96
2021/07/30 08:22:50;;;;;;;7.07;2.92;;;20.20;98.00;;;;;;4991654;28;20195;-96
2021/07/30 08:25:22;;;;;;;7.40;2.65;;;20.20;98.90;;;;;;4989832;28;20191;-96
2021/07/30 08:28:02;;;;;;;6.75;2.40;;;20.30;98.30;;;;;;4991998;28;20195;-96
2021/07/30 08:30:29;;;;;;;9.68;2.67;;;20.40;98.30;;;;;;4992855;28;20172;-96
2021/07/30 08:32:57;;;;;;;6.45;2.53;;;20.60;97.80;;;;;;4989743;28;20207;-96
2021/07/30 08:35:28;;;;;;;8.20;2.50;;;20.90;98.70;;;;;;4992353;28;20168;-96
2021/07/30 08:37:54;;;;;;;6.18;2.97;;;21.10;97.00;;;;;;4992474;28;20228;-96
2021/07/30 08:40:23;;;;;;;5.50;1.88;;;21.20;96.90;;;;;;4993272;28;20208;-96
2021/07/30 08:42:57;;;;;;;9.70;2.75;;;21.20;96.10;;;;;;4992077;28;20196;-96
2021/07/30 08:45:24;;;;;;;8.65;2.72;;;21.00;95.50;;;;;;4990133;28;20236;-96
2021/07/30 08:47:54;;;;;;;13.02;3.10;;;20.90;96.60;;;;;;4987653;28;20223;-95
2021/07/30 08:50:19;;;;;;;6.70;2.75;;;20.90;97.20;;;;;;4984255;28;20188;-95
2021/07/30 08:52:56;;;;;;;6.68;2.55;;;21.10;96.80;;;;;;4991081;28;20227;-96
2021/07/30 08:55:35;;;;;;;7.43;2.90;;;21.10;96.20;;;;;;4992477;28;20167;-96
2021/07/30 08:58:02;;;;;;;9.45;2.75;;;21.20;96.80;;;;;;4992652;28;20218;-96
2021/07/30 09:00:28;;;;;;;13.70;3.10;;;21.20;95.90;;;;;;4991447;28;20235;-96
2021/07/30 09:02:59;;;;;;;6.93;2.28;;;21.30;96.10;;;;;;4992396;28;20195;-96
2021/07/30 09:05:34;;;;;;;14.43;2.90;;;21.30;95.10;;;;;;4986944;28;20253;-95
2021/07/30 09:08:24;;;;;;;7.63;2.75;;;21.30;96.50;;;;;;4987435;28;20171;-95
2021/07/30 09:10:51;;;;;;;10.20;2.90;;;21.30;95.70;;;;;;4988104;28;20172;-95
2021/07/30 09:13:29;;;;;;;8.77;2.85;;;21.40;95.30;;;;;;4987800;28;20216;-95
2021/07/30 09:16:12;;;;;;;8.13;2.85;;;21.50;95.00;;;;;;4988381;28;20167;-95
2021/07/30 09:18:41;;;;;;;7.00;2.50;;;21.60;95.20;;;;;;4989065;28;20196;-94
2021/07/30 09:21:32;;;;;;;5.47;2.47;;;21.80;94.80;;;;;;4988169;28;20203;-96
2021/07/30 09:24:06;;;;;;;10.23;2.75;;;21.90;94.80;;;;;;4987258;28;20204;-95
2021/07/30 09:26:47;;;;;;;5.72;2.50;;;21.80;95.00;;;;;;4986952;28;20168;-95
2021/07/30 09:29:18;;;;;;;10.07;2.80;;;21.90;95.60;;;;;;4988179;28;20202;-95
2021/07/30 09:31:56;;;;;;;8.50;2.63;;;21.90;95.00;;;;;;4988152;28;20166;-95
2021/07/30 09:34:28;;;;;;;10.35;3.00;;;21.90;94.60;;;;;;4987151;28;20203;-96
2021/07/30 09:37:08;;;;;;;9.43;2.83;;;21.90;95.10;;;;;;4986718;28;20235;-95
2021/07/30 09:39:34;;;;;;;8.32;2.47;;;21.90;94.20;;;;;;4989377;28;20235;-94
2021/07/30 09:42:01;;;;;;;9.40;2.65;;;21.70;94.60;;;;;;4986734;28;20164;-95
2021/07/30 09:44:29;;;;;;;8.52;2.65;;;21.60;96.00;;;;;;4984852;28;20196;-94
2021/07/30 09:47:13;;;;;;;7.35;2.30;;;21.80;96.50;;;;;;4986245;28;20183;-95
2021/07/30 09:50:04;;;;;;;7.97;2.88;;;21.80;94.60;;;;;;4987625;28;20237;-95
2021/07/30 09:52:41;;;;;;;5.72;2.75;;;21.80;95.80;;;;;;4985150;28;20204;-95
2021/07/30 09:55:14;;;;;;;10.00;2.75;;;22.20;97.70;;;;;;4985253;28;20176;-95
2021/07/30 09:57:44;;;;;;;10.48;3.05;;;22.40;96.20;;;;;;4986405;28;20176;-95
2021/07/30 10:00:13;;;;;;;10.45;2.75;;;22.60;95.20;;;;;;4984280;28;20302;-96
2021/07/30 10:02:46;;;;;;;7.03;2.50;;;22.80;95.70;;;;;;4987060;28;20742;-96
2021/07/30 10:05:18;;;;;;;9.15;2.85;;;22.70;94.40;;;;;;4984423;28;20172;-96
2021/07/30 10:07:47;;;;;;;7.07;2.60;;;22.70;94.30;;;;;;4986011;28;20268;-95
2021/07/30 10:10:20;;;;;;;5.45;2.30;;;22.80;94.20;;;;;;4982919;28;20171;-95
2021/07/30 10:12:54;;;;;;;8.75;2.72;;;22.80;94.30;;;;;;4981673;28;20200;-95
2021/07/30 10:15:21;;;;;;;5.70;2.53;;;22.60;94.00;;;;;;4981442;28;20199;-95
2021/07/30 10:17:56;;;;;;;12.43;2.58;;;22.50;94.80;;;;;;4983664;28;20180;-95
2021/07/30 10:20:25;;;;;;;7.72;2.72;;;22.30;95.30;;;;;;4986949;28;20266;-94
2021/07/30 10:23:08;;;;;;;7.93;2.50;;;22.30;94.50;;;;;;4985662;28;20192;-95
2021/07/30 10:25:53;;;;;;;7.40;2.35;;;22.40;95.50;;;;;;4987211;28;20168;-95
2021/07/30 10:28:26;;;;;;;4.97;1.98;;;22.30;94.20;;;;;;4984825;28;20180;-94
2021/07/30 10:30:59;;;;;;;7.15;2.40;;;22.20;93.80;;;;;;4984236;28;20271;-95
2021/07/30 10:33:46;;;;;;;6.53;2.53;;;22.10;94.20;;;;;;4984027;28;20254;-93
2021/07/30 10:36:30;;;;;;;6.22;2.55;;;21.90;94.00;;;;;;4983425;28;20174;-95
2021/07/30 10:39:18;;;;;;;6.05;2.40;;;21.90;95.50;;;;;;4984843;28;20231;-94
2021/07/30 10:42:11;;;;;;;7.97;2.03;;;22.00;94.50;;;;;;4983387;28;20202;-96
2021/07/30 10:45:17;;;;;;;5.97;2.10;;;22.10;95.70;;;;;;4985556;28;20176;-94
2021/07/30 10:47:45;;;;;;;6.55;2.20;;;22.20;95.10;;;;;;4987931;28;20171;-94
2021/07/30 10:50:46;;;;;;;6.30;2.33;;;22.40;95.70;;;;;;4986852;28;20176;-94
2021/07/30 10:53:34;;;;;;;5.78;2.10;;;22.50;94.10;;;;;;4988502;28;20664;-92
2021/07/30 10:56:19;;;;;;;6.25;2.35;;;22.60;93.80;;;;;;4986823;28;20180;-95
2021/07/30 10:58:45;;;;;;;5.47;2.08;;;22.60;95.50;;;;;;4986618;28;20206;-94
2021/07/30 11:01:19;;;;;;;6.10;2.17;;;22.70;94.30;;;;;;4986709;28;20633;-95
2021/07/30 11:03:54;;;;;;;6.97;2.00;;;22.90;94.50;;;;;;4986866;28;20196;-95
2021/07/30 11:06:44;;;;;;;6.57;2.33;;;23.10;92.80;;;;;;4987420;28;20654;-93
2021/07/30 11:09:16;;;;;;;10.30;2.00;;;23.20;93.40;;;;;;4988463;28;20188;-94
2021/07/30 11:11:57;;;;;;;5.47;2.15;;;23.40;93.30;;;;;;4988351;28;20179;-96
2021/07/30 11:14:33;;;;;;;6.32;2.00;;;23.50;93.10;;;;;;4987102;28;20294;-95
2021/07/30 11:17:04;;;;;;;4.43;1.73;;;23.40;92.70;;;;;;4985629;28;20231;-95
2021/07/30 11:19:34;;;;;;;5.70;2.33;;;23.30;92.90;;;;;;4986906;28;20192;-94
2021/07/30 11:22:03;;;;;;;7.15;2.00;;;23.30;93.10;;;;;;4988128;28;20172;-94
2021/07/30 11:24:29;;;;;;;5.22;2.08;;;23.40;92.20;;;;;;4988279;28;20199;-95
2021/07/30 11:26:56;;;;;;;5.40;2.00;;;23.60;91.60;;;;;;4987196;28;20245;-95
2021/07/30 11:29:25;;;;;;;6.22;1.95;;;23.90;91.80;;;;;;4988414;28;20227;-95
2021/07/30 11:31:58;;;;;;;6.47;1.90;;;24.00;91.10;;;;;;4986308;28;20168;-93
2021/07/30 11:34:29;;;;;;;5.65;1.90;;;23.80;90.40;;;;;;4986185;28;20698;-96
2021/07/30 11:37:00;;;;;;;6.63;2.30;;;23.80;91.80;;;;;;4986939;28;20184;-95
2021/07/30 11:39:34;;;;;;;4.70;1.85;;;23.90;91.00;;;;;;4987251;28;20751;-95
2021/07/30 11:42:01;;;;;;;8.32;1.90;;;24.00;91.10;;;;;;4985410;28;20172;-94
2021/07/30 11:44:28;;;;;;;9.75;2.20;;;24.00;91.00;;;;;;4984862;28;20196;-94
2021/07/30 11:46:55;;;;;;;3.08;1.70;;;24.20;91.80;;;;;;4985700;28;20164;-96
2021/07/30 11:49:31;;;;;;;6.15;1.85;;;24.20;91.40;;;;;;4983998;28;20546;-96
2021/07/30 11:51:58;;;;;;;6.18;1.90;;;24.10;91.50;;;;;;4986864;28;20179;-96
2021/07/30 11:54:27;;;;;;;5.00;2.33;;;24.20;91.90;;;;;;4984160;28;20210;-95
2021/07/30 11:56:54;;;;;;;8.13;2.17;;;24.30;90.90;;;;;;4985331;28;20175;-94
2021/07/30 11:59:21;;;;;;;2.95;1.63;;;24.40;92.00;;;;;;4985274;28;20651;-96
2021/07/30 12:02:06;;;;;;;5.68;1.60;;;24.50;91.70;;;;;;4986357;28;20236;-94
2021/07/30 12:04:34;;;;;;;5.05;1.95;;;24.60;91.50;;;;;;4985455;28;20242;-96
2021/07/30 12:07:16;;;;;;;4.60;1.70;;;24.70;90.20;;;;;;4982480;28;20172;-95
2021/07/30 12:09:49;;;;;;;4.90;1.90;;;24.70;91.10;;;;;;4984583;28;20172;-95
2021/07/30 12:12:16;;;;;;;5.22;1.52;;;24.60;90.40;;;;;;4984740;28;20262;-96
2021/07/30 12:14:48;;;;;;;6.70;2.17;;;24.50;90.10;;;;;;4982156;28;20171;-94
2021/07/30 12:17:20;;;;;;;7.78;2.53;;;24.40;90.70;;;;;;4983905;28;20168;-94
2021/07/30 12:20:04;;;;;;;5.88;2.05;;;24.30;90.50;;;;;;4983444;28;20267;-95
2021/07/30 12:22:37;;;;;;;8.73;1.98;;;24.40;90.90;;;;;;4982654;28;20660;-94
2021/07/30 12:25:04;;;;;;;6.53;1.90;;;24.40;90.60;;;;;;4981532;28;20259;-95
2021/07/30 12:27:30;;;;;;;3.45;1.40;;;24.30;90.10;;;;;;4983545;28;20168;-94
2021/07/30 12:30:05;;;;;;;4.43;1.45;;;24.20;90.60;;;;;;4983315;28;20656;-95
2021/07/30 12:32:45;;;;;;;4.43;1.50;;;24.20;91.20;;;;;;4983913;28;20223;-93
2021/07/30 12:35:14;;;;;;;4.05;1.63;;;24.40;90.40;;;;;;4983831;28;20711;-94
2021/07/30 12:38:16;;;;;;;4.28;1.70;;;24.40;90.90;;;;;;4984468;28;20183;-94
2021/07/30 12:40:44;;;;;;;4.10;1.48;;;24.50;91.20;;;;;;4962872;28;20207;-94
2021/07/30 12:43:19;;;;;;;5.43;1.75;;;24.50;91.20;;;;;;4963397;28;20539;-94
2021/07/30 12:45:49;;;;;;;3.25;1.73;;;24.50;90.20;;;;;;4963222;28;20175;-93
2021/07/30 12:48:31;;;;;;;3.88;1.50;;;24.50;90.60;;;;;;4964369;28;20573;-95
2021/07/30 12:51:23;;;;;;;2.95;1.40;;;24.40;90.40;;;;;;4964838;28;20165;-94
2021/07/30 12:54:13;;;;;;;8.05;1.35;;;24.40;90.30;;;;;;4966486;28;20739;-94
2021/07/30 12:57:04;;;;;;;7.72;1.50;;;24.40;90.90;;;;;;4966039;28;20171;-94
2021/07/30 12:59:48;;;;;;;3.63;1.67;;;24.50;90.10;;;;;;4967198;28;20546;-94
2021/07/30 13:02:15;;;;;;;4.00;1.45;;;24.40;90.60;;;;;;4964685;28;20164;-94